sensor_id;sensor_type;location;lat;lon;timestamp;P1;durP1;ratioP1;P2;durP2;ratioP2
60919;SDS011;59039;52.108;19.942;2023-03-19T00:01:52;134.00;;;40.10;;
60919;SDS011;59039;52.108;19.942;2023-03-19T00:04:17;111.50;;;36.60;;
60919;SDS011;59039;52.108;19.942;2023-03-19T00:06:43;106.70;;;35.50;;
60919;SDS011;59039;52.108;19.942;2023-03-19T00:09:09;118.60;;;36.80;;
60919;SDS011;59039;52.108;19.942;2023-03-19T00:11:34;106.20;;;36.90;;
60919;SDS011;59039;52.108;19.942;2023-03-19T00:14:00;103.30;;;34.70;;
60919;SDS011;59039;52.108;19.942;2023-03-19T00:16:25;117.60;;;38.40;;
60919;SDS011;59039;52.108;19.942;2023-03-19T00:18:54;116.30;;;38.90;;
60919;SDS011;59039;52.108;19.942;2023-03-19T00:21:20;137.00;;;45.20;;
60919;SDS011;59039;52.108;19.942;2023-03-19T00:23:45;86.70;;;34.50;;
60919;SDS011;59039;52.108;19.942;2023-03-19T00:26:11;118.10;;;42.30;;
60919;SDS011;59039;52.108;19.942;2023-03-19T00:28:37;110.20;;;37.70;;
60919;SDS011;59039;52.108;19.942;2023-03-19T00:31:13;93.80;;;33.50;;
60919;SDS011;59039;52.108;19.942;2023-03-19T00:33:52;100.50;;;35.90;;
60919;SDS011;59039;52.108;19.942;2023-03-19T00:36:18;84.00;;;32.20;;
60919;SDS011;59039;52.108;19.942;2023-03-19T00:38:44;88.00;;;35.20;;
60919;SDS011;59039;52.108;19.942;2023-03-19T00:41:10;132.30;;;47.10;;
60919;SDS011;59039;52.108;19.942;2023-03-19T00:43:36;89.10;;;33.30;;
60919;SDS011;59039;52.108;19.942;2023-03-19T00:46:02;69.20;;;29.50;;
60919;SDS011;59039;52.108;19.942;2023-03-19T00:48:28;91.50;;;36.80;;
60919;SDS011;59039;52.108;19.942;2023-03-19T00:50:54;177.50;;;53.40;;
60919;SDS011;59039;52.108;19.942;2023-03-19T00:53:19;186.60;;;54.60;;
60919;SDS011;59039;52.108;19.942;2023-03-19T00:55:45;167.00;;;48.60;;
60919;SDS011;59039;52.108;19.942;2023-03-19T00:58:10;133.00;;;44.50;;
60919;SDS011;59039;52.108;19.942;2023-03-19T01:00:36;109.30;;;39.10;;
60919;SDS011;59039;52.108;19.942;2023-03-19T01:03:03;108.40;;;40.70;;
60919;SDS011;59039;52.108;19.942;2023-03-19T01:05:29;100.10;;;36.20;;
60919;SDS011;59039;52.108;19.942;2023-03-19T01:07:55;92.50;;;35.00;;
60919;SDS011;59039;52.108;19.942;2023-03-19T01:10:26;85.30;;;34.50;;
60919;SDS011;59039;52.108;19.942;2023-03-19T01:12:54;82.00;;;31.80;;
60919;SDS011;59039;52.108;19.942;2023-03-19T01:15:20;72.00;;;29.50;;
60919;SDS011;59039;52.108;19.942;2023-03-19T01:17:45;64.10;;;27.70;;
60919;SDS011;59039;52.108;19.942;2023-03-19T01:20:11;71.90;;;26.90;;
60919;SDS011;59039;52.108;19.942;2023-03-19T01:22:37;54.90;;;25.30;;
60919;SDS011;59039;52.108;19.942;2023-03-19T01:25:04;56.90;;;25.80;;
60919;SDS011;59039;52.108;19.942;2023-03-19T01:27:30;55.10;;;24.70;;
60919;SDS011;59039;52.108;19.942;2023-03-19T01:29:56;57.90;;;25.50;;
60919;SDS011;59039;52.108;19.942;2023-03-19T01:32:21;63.90;;;24.60;;
60919;SDS011;59039;52.108;19.942;2023-03-19T01:34:55;57.10;;;25.90;;
60919;SDS011;59039;52.108;19.942;2023-03-19T01:37:20;58.20;;;24.70;;
60919;SDS011;59039;52.108;19.942;2023-03-19T01:39:46;71.70;;;26.30;;
60919;SDS011;59039;52.108;19.942;2023-03-19T01:42:11;61.30;;;25.80;;
60919;SDS011;59039;52.108;19.942;2023-03-19T01:44:38;82.80;;;31.70;;
60919;SDS011;59039;52.108;19.942;2023-03-19T01:47:13;101.10;;;35.50;;
60919;SDS011;59039;52.108;19.942;2023-03-19T01:49:42;97.40;;;36.70;;
60919;SDS011;59039;52.108;19.942;2023-03-19T01:52:10;80.00;;;31.00;;
60919;SDS011;59039;52.108;19.942;2023-03-19T01:54:36;89.10;;;32.20;;
60919;SDS011;59039;52.108;19.942;2023-03-19T01:57:06;77.90;;;30.90;;
60919;SDS011;59039;52.108;19.942;2023-03-19T01:59:37;64.20;;;28.50;;
60919;SDS011;59039;52.108;19.942;2023-03-19T02:04:52;57.00;;;26.20;;
60919;SDS011;59039;52.108;19.942;2023-03-19T02:09:50;60.90;;;23.70;;
60919;SDS011;59039;52.108;19.942;2023-03-19T02:12:16;54.70;;;24.70;;
60919;SDS011;59039;52.108;19.942;2023-03-19T02:14:42;50.60;;;23.10;;
60919;SDS011;59039;52.108;19.942;2023-03-19T02:17:07;55.10;;;24.00;;
60919;SDS011;59039;52.108;19.942;2023-03-19T02:22:08;53.70;;;23.30;;
60919;SDS011;59039;52.108;19.942;2023-03-19T02:24:36;48.70;;;22.90;;
60919;SDS011;59039;52.108;19.942;2023-03-19T02:27:06;56.30;;;23.70;;
60919;SDS011;59039;52.108;19.942;2023-03-19T02:29:32;56.60;;;23.50;;
60919;SDS011;59039;52.108;19.942;2023-03-19T02:31:57;54.90;;;21.90;;
60919;SDS011;59039;52.108;19.942;2023-03-19T02:36:50;51.50;;;22.10;;
60919;SDS011;59039;52.108;19.942;2023-03-19T02:39:22;49.50;;;23.20;;
60919;SDS011;59039;52.108;19.942;2023-03-19T02:41:54;53.70;;;22.70;;
60919;SDS011;59039;52.108;19.942;2023-03-19T02:44:22;55.00;;;22.10;;
60919;SDS011;59039;52.108;19.942;2023-03-19T02:46:47;51.40;;;25.00;;
60919;SDS011;59039;52.108;19.942;2023-03-19T02:49:12;55.00;;;23.40;;
60919;SDS011;59039;52.108;19.942;2023-03-19T02:51:38;57.00;;;23.40;;
60919;SDS011;59039;52.108;19.942;2023-03-19T02:54:03;55.20;;;23.40;;
60919;SDS011;59039;52.108;19.942;2023-03-19T02:56:29;53.30;;;22.60;;
60919;SDS011;59039;52.108;19.942;2023-03-19T02:58:54;60.10;;;22.00;;
60919;SDS011;59039;52.108;19.942;2023-03-19T03:01:20;51.60;;;23.20;;
60919;SDS011;59039;52.108;19.942;2023-03-19T03:03:45;44.80;;;22.60;;
60919;SDS011;59039;52.108;19.942;2023-03-19T03:06:10;54.60;;;22.90;;
60919;SDS011;59039;52.108;19.942;2023-03-19T03:08:45;47.30;;;21.50;;
60919;SDS011;59039;52.108;19.942;2023-03-19T03:11:11;51.30;;;21.80;;
60919;SDS011;59039;52.108;19.942;2023-03-19T03:13:36;46.30;;;21.60;;
60919;SDS011;59039;52.108;19.942;2023-03-19T03:16:02;50.90;;;20.50;;
60919;SDS011;59039;52.108;19.942;2023-03-19T03:18:27;49.40;;;21.50;;
60919;SDS011;59039;52.108;19.942;2023-03-19T03:20:55;46.20;;;21.30;;
60919;SDS011;59039;52.108;19.942;2023-03-19T03:23:23;42.00;;;19.90;;
60919;SDS011;59039;52.108;19.942;2023-03-19T03:25:49;46.50;;;21.10;;
60919;SDS011;59039;52.108;19.942;2023-03-19T03:28:16;49.10;;;21.10;;
60919;SDS011;59039;52.108;19.942;2023-03-19T03:30:44;44.00;;;21.50;;
60919;SDS011;59039;52.108;19.942;2023-03-19T03:33:12;44.40;;;20.90;;
60919;SDS011;59039;52.108;19.942;2023-03-19T03:35:38;45.00;;;21.10;;
60919;SDS011;59039;52.108;19.942;2023-03-19T03:38:03;47.70;;;22.90;;
60919;SDS011;59039;52.108;19.942;2023-03-19T03:40:29;52.70;;;23.00;;
60919;SDS011;59039;52.108;19.942;2023-03-19T03:42:54;49.00;;;22.10;;
60919;SDS011;59039;52.108;19.942;2023-03-19T03:45:20;51.30;;;22.80;;
60919;SDS011;59039;52.108;19.942;2023-03-19T03:47:46;47.00;;;21.70;;
60919;SDS011;59039;52.108;19.942;2023-03-19T03:50:11;47.80;;;21.90;;
60919;SDS011;59039;52.108;19.942;2023-03-19T03:52:37;41.50;;;20.20;;
60919;SDS011;59039;52.108;19.942;2023-03-19T03:55:03;47.40;;;21.50;;
60919;SDS011;59039;52.108;19.942;2023-03-19T03:57:29;47.90;;;21.00;;
60919;SDS011;59039;52.108;19.942;2023-03-19T03:59:54;46.50;;;21.30;;
60919;SDS011;59039;52.108;19.942;2023-03-19T04:02:20;58.90;;;23.10;;
60919;SDS011;59039;52.108;19.942;2023-03-19T04:04:45;48.00;;;21.70;;
60919;SDS011;59039;52.108;19.942;2023-03-19T04:07:10;55.40;;;22.70;;
60919;SDS011;59039;52.108;19.942;2023-03-19T04:09:36;54.40;;;23.70;;
60919;SDS011;59039;52.108;19.942;2023-03-19T04:12:01;48.90;;;22.20;;
60919;SDS011;59039;52.108;19.942;2023-03-19T04:14:26;50.70;;;23.10;;
60919;SDS011;59039;52.108;19.942;2023-03-19T04:16:52;50.30;;;22.20;;
60919;SDS011;59039;52.108;19.942;2023-03-19T04:19:17;45.40;;;21.40;;
60919;SDS011;59039;52.108;19.942;2023-03-19T04:21:43;49.10;;;22.50;;
60919;SDS011;59039;52.108;19.942;2023-03-19T04:24:08;58.40;;;24.60;;
60919;SDS011;59039;52.108;19.942;2023-03-19T04:26:34;56.60;;;23.90;;
60919;SDS011;59039;52.108;19.942;2023-03-19T04:28:59;57.80;;;25.70;;
60919;SDS011;59039;52.108;19.942;2023-03-19T04:31:25;59.20;;;25.00;;
60919;SDS011;59039;52.108;19.942;2023-03-19T04:33:50;62.30;;;28.00;;
60919;SDS011;59039;52.108;19.942;2023-03-19T04:36:16;71.80;;;29.10;;
60919;SDS011;59039;52.108;19.942;2023-03-19T04:38:41;119.70;;;43.50;;
60919;SDS011;59039;52.108;19.942;2023-03-19T04:41:07;107.00;;;39.60;;
60919;SDS011;59039;52.108;19.942;2023-03-19T04:43:32;118.30;;;39.30;;
60919;SDS011;59039;52.108;19.942;2023-03-19T04:45:58;137.30;;;44.90;;
60919;SDS011;59039;52.108;19.942;2023-03-19T04:48:23;132.00;;;41.60;;
60919;SDS011;59039;52.108;19.942;2023-03-19T04:50:48;165.50;;;46.90;;
60919;SDS011;59039;52.108;19.942;2023-03-19T04:53:14;215.00;;;62.40;;
60919;SDS011;59039;52.108;19.942;2023-03-19T04:55:42;370.00;;;136.90;;
60919;SDS011;59039;52.108;19.942;2023-03-19T04:58:08;479.80;;;201.40;;
60919;SDS011;59039;52.108;19.942;2023-03-19T05:00:33;443.20;;;185.00;;
60919;SDS011;59039;52.108;19.942;2023-03-19T05:02:59;372.00;;;139.00;;
60919;SDS011;59039;52.108;19.942;2023-03-19T05:05:25;333.70;;;127.80;;
60919;SDS011;59039;52.108;19.942;2023-03-19T05:07:50;212.40;;;82.30;;
60919;SDS011;59039;52.108;19.942;2023-03-19T05:10:16;137.50;;;53.40;;
60919;SDS011;59039;52.108;19.942;2023-03-19T05:12:41;73.80;;;32.10;;
60919;SDS011;59039;52.108;19.942;2023-03-19T05:15:07;58.50;;;28.90;;
60919;SDS011;59039;52.108;19.942;2023-03-19T05:17:32;72.70;;;27.30;;
60919;SDS011;59039;52.108;19.942;2023-03-19T05:19:58;75.10;;;29.80;;
60919;SDS011;59039;52.108;19.942;2023-03-19T05:22:26;184.30;;;47.20;;
60919;SDS011;59039;52.108;19.942;2023-03-19T05:24:52;205.30;;;55.90;;
60919;SDS011;59039;52.108;19.942;2023-03-19T05:27:17;217.30;;;60.00;;
60919;SDS011;59039;52.108;19.942;2023-03-19T05:29:43;277.70;;;77.10;;
60919;SDS011;59039;52.108;19.942;2023-03-19T05:32:08;293.80;;;81.50;;
60919;SDS011;59039;52.108;19.942;2023-03-19T05:34:34;254.00;;;75.50;;
60919;SDS011;59039;52.108;19.942;2023-03-19T05:37:00;190.50;;;61.40;;
60919;SDS011;59039;52.108;19.942;2023-03-19T05:39:25;147.40;;;51.30;;
60919;SDS011;59039;52.108;19.942;2023-03-19T05:41:51;130.10;;;48.80;;
60919;SDS011;59039;52.108;19.942;2023-03-19T05:44:16;101.30;;;43.30;;
60919;SDS011;59039;52.108;19.942;2023-03-19T05:46:41;76.70;;;35.90;;
60919;SDS011;59039;52.108;19.942;2023-03-19T05:49:07;74.60;;;34.10;;
60919;SDS011;59039;52.108;19.942;2023-03-19T05:51:32;62.30;;;31.00;;
60919;SDS011;59039;52.108;19.942;2023-03-19T05:53:57;50.20;;;27.30;;
60919;SDS011;59039;52.108;19.942;2023-03-19T05:56:23;51.40;;;26.00;;
60919;SDS011;59039;52.108;19.942;2023-03-19T05:58:48;45.20;;;23.70;;
60919;SDS011;59039;52.108;19.942;2023-03-19T06:01:14;48.70;;;22.90;;
60919;SDS011;59039;52.108;19.942;2023-03-19T06:03:40;47.40;;;22.60;;
60919;SDS011;59039;52.108;19.942;2023-03-19T06:06:05;49.00;;;23.20;;
60919;SDS011;59039;52.108;19.942;2023-03-19T06:08:31;42.30;;;22.40;;
60919;SDS011;59039;52.108;19.942;2023-03-19T06:10:56;49.60;;;23.50;;
60919;SDS011;59039;52.108;19.942;2023-03-19T06:13:21;42.00;;;22.30;;
60919;SDS011;59039;52.108;19.942;2023-03-19T06:15:47;36.60;;;20.90;;
60919;SDS011;59039;52.108;19.942;2023-03-19T06:18:14;47.60;;;21.70;;
60919;SDS011;59039;52.108;19.942;2023-03-19T06:20:40;35.10;;;19.20;;
60919;SDS011;59039;52.108;19.942;2023-03-19T06:23:05;45.30;;;22.00;;
60919;SDS011;59039;52.108;19.942;2023-03-19T06:25:30;48.80;;;24.20;;
60919;SDS011;59039;52.108;19.942;2023-03-19T06:27:55;48.20;;;23.80;;
60919;SDS011;59039;52.108;19.942;2023-03-19T06:30:28;54.50;;;27.20;;
60919;SDS011;59039;52.108;19.942;2023-03-19T06:32:54;49.90;;;27.10;;
60919;SDS011;59039;52.108;19.942;2023-03-19T06:35:19;49.00;;;25.60;;
60919;SDS011;59039;52.108;19.942;2023-03-19T06:37:45;43.80;;;22.80;;
60919;SDS011;59039;52.108;19.942;2023-03-19T06:40:11;55.70;;;27.10;;
60919;SDS011;59039;52.108;19.942;2023-03-19T06:42:39;57.80;;;30.00;;
60919;SDS011;59039;52.108;19.942;2023-03-19T06:45:08;67.80;;;32.10;;
60919;SDS011;59039;52.108;19.942;2023-03-19T06:47:34;61.20;;;31.50;;
60919;SDS011;59039;52.108;19.942;2023-03-19T06:50:00;58.30;;;28.40;;
60919;SDS011;59039;52.108;19.942;2023-03-19T06:52:25;54.00;;;26.10;;
60919;SDS011;59039;52.108;19.942;2023-03-19T06:54:51;58.40;;;25.60;;
60919;SDS011;59039;52.108;19.942;2023-03-19T06:57:16;49.70;;;24.00;;
60919;SDS011;59039;52.108;19.942;2023-03-19T06:59:42;54.30;;;22.80;;
60919;SDS011;59039;52.108;19.942;2023-03-19T07:02:09;45.20;;;21.70;;
60919;SDS011;59039;52.108;19.942;2023-03-19T07:04:35;63.20;;;27.10;;
60919;SDS011;59039;52.108;19.942;2023-03-19T07:07:01;82.90;;;32.40;;
60919;SDS011;59039;52.108;19.942;2023-03-19T07:09:26;108.30;;;41.70;;
60919;SDS011;59039;52.108;19.942;2023-03-19T07:11:52;77.50;;;33.00;;
60919;SDS011;59039;52.108;19.942;2023-03-19T07:14:17;87.20;;;34.20;;
60919;SDS011;59039;52.108;19.942;2023-03-19T07:16:43;83.90;;;32.10;;
60919;SDS011;59039;52.108;19.942;2023-03-19T07:19:08;70.50;;;28.30;;
60919;SDS011;59039;52.108;19.942;2023-03-19T07:21:33;56.60;;;25.40;;
60919;SDS011;59039;52.108;19.942;2023-03-19T07:23:59;63.70;;;28.00;;
60919;SDS011;59039;52.108;19.942;2023-03-19T07:26:24;52.20;;;25.00;;
60919;SDS011;59039;52.108;19.942;2023-03-19T07:28:49;51.90;;;24.70;;
60919;SDS011;59039;52.108;19.942;2023-03-19T07:31:15;46.30;;;24.10;;
60919;SDS011;59039;52.108;19.942;2023-03-19T07:33:40;46.70;;;22.00;;
60919;SDS011;59039;52.108;19.942;2023-03-19T07:36:06;43.90;;;22.10;;
60919;SDS011;59039;52.108;19.942;2023-03-19T07:38:32;50.00;;;24.70;;
60919;SDS011;59039;52.108;19.942;2023-03-19T07:40:57;52.30;;;23.90;;
60919;SDS011;59039;52.108;19.942;2023-03-19T07:43:23;52.40;;;25.60;;
60919;SDS011;59039;52.108;19.942;2023-03-19T07:45:48;70.30;;;28.70;;
60919;SDS011;59039;52.108;19.942;2023-03-19T07:48:13;56.50;;;25.70;;
60919;SDS011;59039;52.108;19.942;2023-03-19T07:50:41;63.80;;;29.40;;
60919;SDS011;59039;52.108;19.942;2023-03-19T07:53:07;58.60;;;27.80;;
60919;SDS011;59039;52.108;19.942;2023-03-19T07:55:32;48.90;;;23.00;;
60919;SDS011;59039;52.108;19.942;2023-03-19T07:57:58;46.00;;;23.70;;
60919;SDS011;59039;52.108;19.942;2023-03-19T08:00:23;73.70;;;32.60;;
60919;SDS011;59039;52.108;19.942;2023-03-19T08:02:49;54.80;;;24.90;;
60919;SDS011;59039;52.108;19.942;2023-03-19T08:05:15;49.60;;;24.60;;
60919;SDS011;59039;52.108;19.942;2023-03-19T08:07:46;55.80;;;27.20;;
60919;SDS011;59039;52.108;19.942;2023-03-19T08:10:12;61.50;;;30.90;;
60919;SDS011;59039;52.108;19.942;2023-03-19T08:15:18;54.60;;;25.00;;
60919;SDS011;59039;52.108;19.942;2023-03-19T08:17:44;50.30;;;24.00;;
60919;SDS011;59039;52.108;19.942;2023-03-19T08:20:19;51.00;;;23.90;;
60919;SDS011;59039;52.108;19.942;2023-03-19T08:22:47;61.30;;;25.70;;
60919;SDS011;59039;52.108;19.942;2023-03-19T08:25:14;60.20;;;27.50;;
60919;SDS011;59039;52.108;19.942;2023-03-19T08:30:18;63.10;;;29.70;;
60919;SDS011;59039;52.108;19.942;2023-03-19T08:32:46;49.00;;;23.60;;
60919;SDS011;59039;52.108;19.942;2023-03-19T08:35:12;55.60;;;25.00;;
60919;SDS011;59039;52.108;19.942;2023-03-19T08:37:40;55.20;;;27.00;;
60919;SDS011;59039;52.108;19.942;2023-03-19T08:40:09;56.00;;;25.60;;
60919;SDS011;59039;52.108;19.942;2023-03-19T08:42:35;55.80;;;27.90;;
60919;SDS011;59039;52.108;19.942;2023-03-19T08:45:03;48.80;;;25.00;;
60919;SDS011;59039;52.108;19.942;2023-03-19T08:47:31;61.70;;;26.40;;
60919;SDS011;59039;52.108;19.942;2023-03-19T08:49:59;69.40;;;31.80;;
60919;SDS011;59039;52.108;19.942;2023-03-19T08:52:25;64.80;;;33.10;;
60919;SDS011;59039;52.108;19.942;2023-03-19T08:54:51;66.10;;;32.30;;
60919;SDS011;59039;52.108;19.942;2023-03-19T08:57:16;54.10;;;25.60;;
60919;SDS011;59039;52.108;19.942;2023-03-19T08:59:41;57.40;;;25.20;;
60919;SDS011;59039;52.108;19.942;2023-03-19T09:02:08;49.70;;;24.30;;
60919;SDS011;59039;52.108;19.942;2023-03-19T09:04:35;55.20;;;24.00;;
60919;SDS011;59039;52.108;19.942;2023-03-19T09:07:00;45.30;;;22.70;;
60919;SDS011;59039;52.108;19.942;2023-03-19T09:09:25;47.90;;;23.20;;
60919;SDS011;59039;52.108;19.942;2023-03-19T09:11:51;54.90;;;24.80;;
60919;SDS011;59039;52.108;19.942;2023-03-19T09:14:16;55.50;;;25.50;;
60919;SDS011;59039;52.108;19.942;2023-03-19T09:16:42;52.70;;;26.30;;
60919;SDS011;59039;52.108;19.942;2023-03-19T09:19:11;69.30;;;29.80;;
60919;SDS011;59039;52.108;19.942;2023-03-19T09:21:36;64.30;;;31.70;;
60919;SDS011;59039;52.108;19.942;2023-03-19T09:24:03;54.20;;;27.00;;
60919;SDS011;59039;52.108;19.942;2023-03-19T09:26:29;52.20;;;25.20;;
60919;SDS011;59039;52.108;19.942;2023-03-19T09:28:55;66.70;;;32.30;;
60919;SDS011;59039;52.108;19.942;2023-03-19T09:31:21;53.50;;;27.70;;
60919;SDS011;59039;52.108;19.942;2023-03-19T09:33:46;57.60;;;27.90;;
60919;SDS011;59039;52.108;19.942;2023-03-19T09:36:12;69.30;;;28.90;;
60919;SDS011;59039;52.108;19.942;2023-03-19T09:38:37;58.80;;;25.00;;
60919;SDS011;59039;52.108;19.942;2023-03-19T09:46:09;57.10;;;28.60;;
60919;SDS011;59039;52.108;19.942;2023-03-19T09:49:01;65.10;;;27.60;;
60919;SDS011;59039;52.108;19.942;2023-03-19T09:51:38;46.90;;;24.60;;
60919;SDS011;59039;52.108;19.942;2023-03-19T09:54:28;42.20;;;22.30;;
60919;SDS011;59039;52.108;19.942;2023-03-19T09:56:59;43.70;;;22.10;;
60919;SDS011;59039;52.108;19.942;2023-03-19T09:59:26;47.10;;;22.20;;
60919;SDS011;59039;52.108;19.942;2023-03-19T10:01:57;44.00;;;23.60;;
60919;SDS011;59039;52.108;19.942;2023-03-19T10:04:40;43.30;;;21.90;;
60919;SDS011;59039;52.108;19.942;2023-03-19T10:16:00;42.20;;;20.20;;
60919;SDS011;59039;52.108;19.942;2023-03-19T10:18:30;35.70;;;18.90;;
60919;SDS011;59039;52.108;19.942;2023-03-19T10:26:08;38.80;;;18.90;;
60919;SDS011;59039;52.108;19.942;2023-03-19T10:28:40;36.40;;;19.20;;
60919;SDS011;59039;52.108;19.942;2023-03-19T10:31:26;36.10;;;19.00;;
60919;SDS011;59039;52.108;19.942;2023-03-19T10:33:59;44.30;;;20.20;;
60919;SDS011;59039;52.108;19.942;2023-03-19T10:36:29;38.80;;;20.60;;
60919;SDS011;59039;52.108;19.942;2023-03-19T10:38:58;36.70;;;19.10;;
60919;SDS011;59039;52.108;19.942;2023-03-19T10:41:37;37.10;;;17.50;;
60919;SDS011;59039;52.108;19.942;2023-03-19T10:44:06;35.60;;;16.70;;
60919;SDS011;59039;52.108;19.942;2023-03-19T10:46:56;38.80;;;18.90;;
60919;SDS011;59039;52.108;19.942;2023-03-19T10:49:22;37.00;;;18.40;;
60919;SDS011;59039;52.108;19.942;2023-03-19T10:51:48;34.80;;;18.90;;
60919;SDS011;59039;52.108;19.942;2023-03-19T10:54:16;35.10;;;17.60;;
60919;SDS011;59039;52.108;19.942;2023-03-19T10:56:58;34.70;;;18.50;;
60919;SDS011;59039;52.108;19.942;2023-03-19T10:59:35;39.90;;;19.60;;
60919;SDS011;59039;52.108;19.942;2023-03-19T11:02:15;41.90;;;18.90;;
60919;SDS011;59039;52.108;19.942;2023-03-19T11:04:42;34.10;;;17.00;;
60919;SDS011;59039;52.108;19.942;2023-03-19T11:07:16;38.10;;;19.10;;
60919;SDS011;59039;52.108;19.942;2023-03-19T11:09:47;41.00;;;19.20;;
60919;SDS011;59039;52.108;19.942;2023-03-19T11:12:23;40.00;;;19.10;;
60919;SDS011;59039;52.108;19.942;2023-03-19T11:14:55;35.60;;;19.90;;
60919;SDS011;59039;52.108;19.942;2023-03-19T11:23:00;46.80;;;22.30;;
60919;SDS011;59039;52.108;19.942;2023-03-19T11:25:46;35.80;;;18.90;;
60919;SDS011;59039;52.108;19.942;2023-03-19T11:28:16;35.70;;;19.20;;
60919;SDS011;59039;52.108;19.942;2023-03-19T11:39:29;40.80;;;19.80;;
60919;SDS011;59039;52.108;19.942;2023-03-19T11:42:22;40.50;;;20.80;;
60919;SDS011;59039;52.108;19.942;2023-03-19T11:47:37;48.30;;;22.60;;
60919;SDS011;59039;52.108;19.942;2023-03-19T11:55:03;46.20;;;24.10;;
60919;SDS011;59039;52.108;19.942;2023-03-19T12:06:16;42.50;;;20.30;;
60919;SDS011;59039;52.108;19.942;2023-03-19T12:08:55;40.00;;;20.70;;
60919;SDS011;59039;52.108;19.942;2023-03-19T12:12:23;36.80;;;18.90;;
60919;SDS011;59039;52.108;19.942;2023-03-19T12:23:24;41.60;;;22.90;;
60919;SDS011;59039;52.108;19.942;2023-03-19T12:26:01;47.70;;;24.90;;
60919;SDS011;59039;52.108;19.942;2023-03-19T12:28:30;42.50;;;21.70;;
60919;SDS011;59039;52.108;19.942;2023-03-19T12:31:12;45.20;;;22.90;;
60919;SDS011;59039;52.108;19.942;2023-03-19T12:33:51;42.40;;;22.00;;
60919;SDS011;59039;52.108;19.942;2023-03-19T12:36:44;38.00;;;20.50;;
60919;SDS011;59039;52.108;19.942;2023-03-19T12:39:32;43.00;;;19.80;;
60919;SDS011;59039;52.108;19.942;2023-03-19T12:42:01;40.90;;;19.20;;
60919;SDS011;59039;52.108;19.942;2023-03-19T12:44:32;39.10;;;19.60;;
60919;SDS011;59039;52.108;19.942;2023-03-19T12:47:13;31.40;;;18.10;;
60919;SDS011;59039;52.108;19.942;2023-03-19T12:50:19;35.80;;;19.30;;
60919;SDS011;59039;52.108;19.942;2023-03-19T12:52:41;46.70;;;22.20;;
60919;SDS011;59039;52.108;19.942;2023-03-19T12:55:16;42.90;;;22.10;;
60919;SDS011;59039;52.108;19.942;2023-03-19T13:01:02;35.50;;;19.40;;
60919;SDS011;59039;52.108;19.942;2023-03-19T13:06:40;31.20;;;16.40;;
60919;SDS011;59039;52.108;19.942;2023-03-19T13:14:24;31.00;;;16.70;;
60919;SDS011;59039;52.108;19.942;2023-03-19T13:19:55;32.30;;;17.60;;
60919;SDS011;59039;52.108;19.942;2023-03-19T13:22:34;40.80;;;18.70;;
60919;SDS011;59039;52.108;19.942;2023-03-19T13:25:05;53.30;;;24.70;;
60919;SDS011;59039;52.108;19.942;2023-03-19T13:27:38;42.30;;;21.20;;
60919;SDS011;59039;52.108;19.942;2023-03-19T13:32:47;37.30;;;18.00;;
60919;SDS011;59039;52.108;19.942;2023-03-19T13:37:59;38.30;;;17.90;;
60919;SDS011;59039;52.108;19.942;2023-03-19T13:40:39;40.00;;;19.10;;
60919;SDS011;59039;52.108;19.942;2023-03-19T13:43:53;30.70;;;15.70;;
60919;SDS011;59039;52.108;19.942;2023-03-19T13:46:25;50.60;;;18.00;;
60919;SDS011;59039;52.108;19.942;2023-03-19T13:48:57;47.50;;;21.70;;
60919;SDS011;59039;52.108;19.942;2023-03-19T13:51:33;35.10;;;17.70;;
60919;SDS011;59039;52.108;19.942;2023-03-19T13:59:31;44.30;;;21.90;;
60919;SDS011;59039;52.108;19.942;2023-03-19T14:02:02;41.90;;;19.80;;
60919;SDS011;59039;52.108;19.942;2023-03-19T14:07:25;52.00;;;23.00;;
60919;SDS011;59039;52.108;19.942;2023-03-19T14:12:49;32.10;;;18.50;;
60919;SDS011;59039;52.108;19.942;2023-03-19T14:15:19;39.50;;;19.40;;
60919;SDS011;59039;52.108;19.942;2023-03-19T14:20:34;29.70;;;17.00;;
60919;SDS011;59039;52.108;19.942;2023-03-19T14:28:32;64.80;;;32.50;;
60919;SDS011;59039;52.108;19.942;2023-03-19T14:30:58;48.70;;;26.20;;
60919;SDS011;59039;52.108;19.942;2023-03-19T14:33:42;37.80;;;19.20;;
60919;SDS011;59039;52.108;19.942;2023-03-19T14:36:20;36.10;;;18.90;;
60919;SDS011;59039;52.108;19.942;2023-03-19T14:38:53;34.10;;;18.20;;
60919;SDS011;59039;52.108;19.942;2023-03-19T14:41:22;39.40;;;18.00;;
60919;SDS011;59039;52.108;19.942;2023-03-19T14:46:32;34.50;;;17.30;;
60919;SDS011;59039;52.108;19.942;2023-03-19T14:52:29;28.80;;;17.00;;
60919;SDS011;59039;52.108;19.942;2023-03-19T14:55:19;29.80;;;15.80;;
60919;SDS011;59039;52.108;19.942;2023-03-19T14:57:44;44.50;;;18.80;;
60919;SDS011;59039;52.108;19.942;2023-03-19T15:00:14;35.40;;;17.00;;
60919;SDS011;59039;52.108;19.942;2023-03-19T15:03:03;38.40;;;17.60;;
60919;SDS011;59039;52.108;19.942;2023-03-19T15:05:31;34.40;;;17.30;;
60919;SDS011;59039;52.108;19.942;2023-03-19T15:08:04;33.60;;;17.00;;
60919;SDS011;59039;52.108;19.942;2023-03-19T15:10:48;38.30;;;19.30;;
60919;SDS011;59039;52.108;19.942;2023-03-19T15:19:09;35.90;;;17.90;;
60919;SDS011;59039;52.108;19.942;2023-03-19T15:21:36;34.90;;;18.20;;
60919;SDS011;59039;52.108;19.942;2023-03-19T15:24:02;40.80;;;19.90;;
60919;SDS011;59039;52.108;19.942;2023-03-19T15:26:38;34.20;;;17.90;;
60919;SDS011;59039;52.108;19.942;2023-03-19T15:29:04;39.10;;;18.20;;
60919;SDS011;59039;52.108;19.942;2023-03-19T15:31:39;36.30;;;17.80;;
60919;SDS011;59039;52.108;19.942;2023-03-19T15:34:16;34.00;;;17.70;;
60919;SDS011;59039;52.108;19.942;2023-03-19T15:37:03;35.90;;;18.70;;
60919;SDS011;59039;52.108;19.942;2023-03-19T15:40:15;33.80;;;19.10;;
60919;SDS011;59039;52.108;19.942;2023-03-19T15:42:23;46.40;;;25.40;;
60919;SDS011;59039;52.108;19.942;2023-03-19T15:45:10;49.50;;;24.50;;
60919;SDS011;59039;52.108;19.942;2023-03-19T15:47:44;76.20;;;35.70;;
60919;SDS011;59039;52.108;19.942;2023-03-19T15:50:21;54.20;;;29.70;;
60919;SDS011;59039;52.108;19.942;2023-03-19T15:52:50;46.50;;;26.30;;
60919;SDS011;59039;52.108;19.942;2023-03-19T15:55:18;52.20;;;26.40;;
60919;SDS011;59039;52.108;19.942;2023-03-19T15:57:44;51.00;;;25.40;;
60919;SDS011;59039;52.108;19.942;2023-03-19T16:00:11;52.10;;;26.60;;
60919;SDS011;59039;52.108;19.942;2023-03-19T16:02:44;51.60;;;23.60;;
60919;SDS011;59039;52.108;19.942;2023-03-19T16:05:24;54.60;;;27.40;;
60919;SDS011;59039;52.108;19.942;2023-03-19T16:07:59;56.60;;;27.10;;
60919;SDS011;59039;52.108;19.942;2023-03-19T16:10:43;62.20;;;28.70;;
60919;SDS011;59039;52.108;19.942;2023-03-19T16:13:45;49.30;;;25.50;;
60919;SDS011;59039;52.108;19.942;2023-03-19T16:18:41;289.50;;;109.60;;
60919;SDS011;59039;52.108;19.942;2023-03-19T16:21:15;179.10;;;69.60;;
60919;SDS011;59039;52.108;19.942;2023-03-19T16:23:44;188.30;;;68.10;;
60919;SDS011;59039;52.108;19.942;2023-03-19T16:26:19;210.90;;;82.90;;